Time;durP1;ratioP1;P1;durP2;ratioP2;P2;SDS_P1;SDS_P2;PMS_P1;PMS_P2;Temp;Humidity;BMP_temperature;BMP_pressure;BME280_temperature;BME280_humidity;BME280_pressure;Samples;Min_cycle;Max_cycle;Signal;HPM_P1;HPM_P2
2022/03/16 00:02:22;;;;;;;10.50;8.45;;;;;;;7.03;45.55;96873.36;1723693;82;21118;-78
2022/03/16 00:12:47;;;;;;;14.73;11.48;;;;;;;6.78;47.18;96881.33;1765454;81;21023;-78
2022/03/16 00:16:02;;;;;;;25.40;15.50;;;;;;;6.69;47.51;96888.67;1746454;81;21079;-78
2022/03/16 00:18:28;;;;;;;19.12;14.03;;;;;;;6.69;48.49;96893.03;1742343;80;20948;-78
2022/03/16 00:20:56;;;;;;;14.78;10.60;;;;;;;6.74;50.65;96884.36;1767536;81;20960;-78
2022/03/16 00:23:22;;;;;;;13.28;9.35;;;;;;;6.75;51.79;96885.98;1778393;81;21292;-78
2022/03/16 00:25:47;;;;;;;14.38;10.93;;;;;;;6.77;50.89;96886.16;1779182;80;21019;-78
2022/03/16 00:32:43;;;;;;;12.00;8.13;;;;;;;6.80;51.03;96882.47;1755457;81;21027;-78
2022/03/16 00:39:10;;;;;;;15.68;11.68;;;;;;;6.78;52.92;96887.79;1635675;87;21423;-79
2022/03/16 00:41:37;;;;;;;12.13;9.58;;;;;;;6.83;52.34;96879.59;1682866;84;21073;-78
2022/03/16 00:44:49;;;;;;;17.85;11.35;;;;;;;6.85;51.60;96872.05;1709765;83;20988;-78
2022/03/16 00:47:30;;;;;;;19.37;14.35;;;;;;;6.87;51.88;96873.20;1716541;83;21035;-78
2022/03/16 00:49:56;;;;;;;15.98;11.80;;;;;;;6.90;51.77;96876.78;1697785;83;20984;-78
2022/03/16 00:56:58;;;;;;;13.15;10.28;;;;;;;6.92;52.41;96870.98;1715558;83;21498;-78
2022/03/16 00:59:39;;;;;;;14.93;11.70;;;;;;;6.91;52.43;96872.75;1710485;83;21414;-79
2022/03/16 01:05:26;;;;;;;14.58;12.00;;;;;;;6.87;54.35;96875.30;1627748;85;21555;-78
2022/03/16 01:07:51;;;;;;;11.83;10.63;;;;;;;6.73;56.44;96875.80;1670317;84;21048;-79
2022/03/16 01:11:19;;;;;;;13.38;10.28;;;;;;;6.59;57.01;96864.19;1661732;85;20997;-79
2022/03/16 01:14:44;;;;;;;13.20;10.85;;;;;;;6.49;57.98;96860.84;1672754;85;20988;-78
2022/03/16 01:17:10;;;;;;;13.75;10.55;;;;;;;6.39;58.22;96854.13;1654707;86;21373;-79
2022/03/16 01:19:36;;;;;;;13.78;10.30;;;;;;;6.35;60.73;96849.73;1670794;85;21304;-79
2022/03/16 01:22:04;;;;;;;15.38;10.18;;;;;;;6.30;61.68;96841.59;1673982;83;20967;-79
2022/03/16 01:24:30;;;;;;;12.58;10.03;;;;;;;6.26;62.40;96834.62;1681113;85;21001;-79
2022/03/16 01:26:56;;;;;;;12.73;10.48;;;;;;;6.17;63.49;96837.23;1722785;82;21083;-78
2022/03/16 01:29:24;;;;;;;12.60;10.55;;;;;;;6.09;64.00;96833.27;1749510;81;21029;-79
2022/03/16 01:31:51;;;;;;;12.28;10.98;;;;;;;6.03;64.36;96832.56;1751721;81;21008;-78
2022/03/16 01:34:17;;;;;;;14.85;11.53;;;;;;;5.97;65.18;96830.87;1726098;81;21079;-78
2022/03/16 01:36:43;;;;;;;16.07;12.00;;;;;;;5.89;66.91;96825.59;1743712;81;20975;-79
2022/03/16 01:39:09;;;;;;;15.05;12.23;;;;;;;5.80;65.88;96822.55;1762771;81;21063;-79
2022/03/16 01:41:35;;;;;;;14.25;11.15;;;;;;;5.75;64.97;96824.75;1768028;81;21047;-79
2022/03/16 01:44:01;;;;;;;13.38;11.97;;;;;;;5.75;65.77;96827.81;1747928;81;21032;-78
2022/03/16 01:46:27;;;;;;;13.48;10.58;;;;;;;5.67;65.45;96822.86;1748146;81;21067;-79
2022/03/16 01:48:53;;;;;;;18.05;12.63;;;;;;;5.59;65.44;96822.77;1747383;81;21030;-80
2022/03/16 01:51:20;;;;;;;15.88;12.30;;;;;;;5.54;66.37;96819.80;1748967;81;21084;-80
2022/03/16 01:53:46;;;;;;;16.12;12.75;;;;;;;5.48;66.55;96814.37;1761925;81;21396;-80
2022/03/16 01:56:12;;;;;;;17.50;13.28;;;;;;;5.37;67.12;96813.60;1753854;81;21025;-80
2022/03/16 01:58:37;;;;;;;14.73;11.45;;;;;;;5.29;67.12;96808.31;1757864;80;21203;-80
2022/03/16 02:01:03;;;;;;;15.88;12.53;;;;;;;5.27;67.64;96810.69;1742432;81;21016;-81
2022/03/16 02:03:29;;;;;;;13.68;11.95;;;;;;;5.27;67.68;96805.06;1755642;81;21064;-80
2022/03/16 02:05:55;;;;;;;14.83;12.65;;;;;;;5.25;68.63;96801.81;1745095;81;21012;-80
2022/03/16 02:08:21;;;;;;;15.18;13.32;;;;;;;5.11;67.88;96799.66;1742261;81;21111;-80
2022/03/16 02:10:47;;;;;;;13.98;12.15;;;;;;;4.99;67.84;96795.59;1747262;80;21061;-80
2022/03/16 02:13:12;;;;;;;14.90;12.33;;;;;;;4.87;68.03;96795.39;1740035;81;21444;-80
2022/03/16 02:15:38;;;;;;;17.90;13.83;;;;;;;4.76;68.32;96789.45;1746958;81;21016;-80
2022/03/16 02:18:04;;;;;;;16.42;13.00;;;;;;;4.67;68.72;96789.44;1744455;81;21095;-80
2022/03/16 02:20:30;;;;;;;15.85;12.90;;;;;;;4.63;69.99;96793.23;1739605;81;20917;-80
2022/03/16 02:23:02;;;;;;;14.80;12.55;;;;;;;4.51;69.80;96788.67;1744658;81;21072;-79
2022/03/16 02:25:30;;;;;;;14.15;11.55;;;;;;;4.45;71.25;96796.94;1748408;81;21027;-81
2022/03/16 02:27:56;;;;;;;13.80;12.33;;;;;;;4.40;70.20;96791.39;1740297;81;21074;-80
2022/03/16 02:30:24;;;;;;;13.88;12.35;;;;;;;4.33;70.34;96783.85;1738730;81;20984;-80
2022/03/16 02:32:49;;;;;;;15.53;12.10;;;;;;;4.26;70.39;96784.05;1734037;81;20977;-80
2022/03/16 02:35:15;;;;;;;11.25;10.15;;;;;;;4.21;70.62;96783.95;1774567;81;21327;-80
2022/03/16 02:37:41;;;;;;;15.18;12.05;;;;;;;4.13;70.96;96781.24;1775021;81;21356;-80
2022/03/16 02:40:09;;;;;;;12.50;11.20;;;;;;;4.03;70.92;96783.44;1698879;84;20978;-80
2022/03/16 02:42:36;;;;;;;11.20;10.00;;;;;;;3.98;70.81;96777.41;1747576;81;20996;-80
2022/03/16 02:45:06;;;;;;;12.30;10.63;;;;;;;3.94;71.01;96769.63;1738707;81;21323;-80
2022/03/16 02:47:31;;;;;;;11.38;9.60;;;;;;;3.90;71.42;96766.95;1746732;81;20913;-80
2022/03/16 02:49:58;;;;;;;10.82;9.10;;;;;;;3.74;71.70;96770.48;1742658;81;21015;-80
2022/03/16 02:52:23;;;;;;;8.13;7.30;;;;;;;3.64;72.79;96765.80;1739708;81;21020;-80
2022/03/16 02:54:49;;;;;;;12.05;10.85;;;;;;;3.51;72.81;96762.16;1744580;81;20997;-80
2022/03/16 02:57:16;;;;;;;13.20;11.83;;;;;;;3.40;73.64;96764.80;1738562;81;20941;-80
2022/03/16 02:59:43;;;;;;;12.88;11.10;;;;;;;3.38;74.28;96766.68;1746003;81;21036;-80
2022/03/16 03:02:10;;;;;;;12.78;11.28;;;;;;;3.36;73.83;96756.53;1742611;82;20992;-81
2022/03/16 03:04:36;;;;;;;11.80;10.60;;;;;;;3.42;74.00;96756.05;1755510;80;21035;-80
2022/03/16 03:07:02;;;;;;;13.50;10.90;;;;;;;3.48;73.85;96755.99;1757265;80;20996;-80
2022/03/16 03:09:28;;;;;;;12.98;11.65;;;;;;;3.50;73.85;96749.78;1749843;81;20996;-80
2022/03/16 03:11:54;;;;;;;13.65;12.25;;;;;;;3.53;73.77;96749.98;1761596;81;21366;-80
2022/03/16 03:14:20;;;;;;;12.58;11.33;;;;;;;3.57;73.80;96747.49;1753308;81;20960;-80
2022/03/16 03:16:46;;;;;;;13.03;11.70;;;;;;;3.59;73.96;96745.16;1751751;80;20941;-80
2022/03/16 03:19:13;;;;;;;12.80;11.35;;;;;;;3.56;73.59;96746.69;1748523;81;20995;-80
2022/03/16 03:21:39;;;;;;;11.88;10.55;;;;;;;3.58;73.92;96746.11;1746766;81;21075;-80
2022/03/16 03:24:05;;;;;;;11.63;10.18;;;;;;;3.57;73.90;96748.31;1741903;81;20997;-80
2022/03/16 03:26:32;;;;;;;11.70;10.50;;;;;;;3.51;74.36;96749.31;1748110;81;20988;-80
2022/03/16 03:28:58;;;;;;;11.65;10.45;;;;;;;3.46;74.52;96745.03;1747653;81;20998;-80
2022/03/16 03:31:23;;;;;;;11.53;10.32;;;;;;;3.44;75.30;96747.73;1747117;81;20997;-80
2022/03/16 03:33:49;;;;;;;11.88;10.50;;;;;;;3.39;75.42;96748.57;1748650;82;21454;-80
2022/03/16 03:36:15;;;;;;;9.75;8.40;;;;;;;3.35;75.61;96745.92;1743666;81;21091;-80
2022/03/16 03:38:40;;;;;;;14.43;12.90;;;;;;;3.37;76.32;96738.08;1743836;81;21025;-81
2022/03/16 03:41:06;;;;;;;14.38;12.85;;;;;;;3.34;76.40;96744.77;1748591;81;21021;-80
2022/03/16 03:43:32;;;;;;;11.30;10.13;;;;;;;3.36;76.17;96750.11;1748497;81;21091;-80
2022/03/16 03:45:58;;;;;;;13.08;11.60;;;;;;;3.41;76.86;96745.40;1758302;81;21371;-80
2022/03/16 03:48:23;;;;;;;12.23;11.03;;;;;;;3.42;76.15;96747.05;1748033;81;21072;-80
2022/03/16 03:50:49;;;;;;;11.78;10.70;;;;;;;3.45;77.14;96749.83;1755406;81;21358;-80
2022/03/16 03:53:16;;;;;;;12.73;11.43;;;;;;;3.46;77.75;96756.59;1740422;82;21138;-80
2022/03/16 03:55:42;;;;;;;11.28;10.18;;;;;;;3.47;77.19;96737.67;1748091;81;21369;-80
2022/03/16 03:58:07;;;;;;;11.75;10.60;;;;;;;3.51;76.74;96745.45;1753857;81;21008;-80
2022/03/16 04:00:33;;;;;;;8.43;7.60;;;;;;;3.56;76.66;96747.97;1755766;80;21008;-80
2022/03/16 04:02:59;;;;;;;10.75;9.70;;;;;;;3.59;77.33;96746.45;1748235;81;21355;-80
2022/03/16 04:05:25;;;;;;;11.50;9.83;;;;;;;3.58;77.10;96755.10;1753895;81;20965;-80
2022/03/16 04:07:51;;;;;;;10.93;9.83;;;;;;;3.58;76.74;96751.25;1748322;81;21051;-80
2022/03/16 04:10:17;;;;;;;11.45;10.35;;;;;;;3.61;76.80;96753.55;1746975;81;21299;-80
2022/03/16 04:12:43;;;;;;;12.95;11.65;;;;;;;3.64;77.77;96751.66;1738936;81;20996;-80
2022/03/16 04:15:09;;;;;;;9.48;8.55;;;;;;;3.60;77.53;96761.39;1680576;84;21438;-81
2022/03/16 04:17:35;;;;;;;10.75;9.10;;;;;;;3.60;76.92;96762.68;1739569;81;21088;-80
2022/03/16 04:20:03;;;;;;;9.80;8.80;;;;;;;3.65;77.12;96767.42;1742041;81;20970;-80
2022/03/16 04:22:28;;;;;;;10.35;9.18;;;;;;;3.70;76.95;96763.52;1748812;81;21327;-80
2022/03/16 04:24:55;;;;;;;10.20;9.00;;;;;;;3.77;77.00;96768.97;1744170;81;21028;-80
2022/03/16 04:27:20;;;;;;;10.00;8.90;;;;;;;3.79;76.84;96765.79;1745264;81;21046;-80
2022/03/16 04:29:47;;;;;;;8.85;7.95;;;;;;;3.79;76.94;96768.36;1752542;81;21068;-80
2022/03/16 04:32:12;;;;;;;10.10;9.10;;;;;;;3.80;76.98;96762.27;1744256;81;21360;-80
2022/03/16 04:34:38;;;;;;;7.10;6.40;;;;;;;3.79;76.89;96767.08;1739491;81;20961;-80
2022/03/16 04:37:04;;;;;;;8.23;7.42;;;;;;;3.80;76.96;96763.09;1761195;81;20975;-80
2022/03/16 04:39:31;;;;;;;9.18;8.28;;;;;;;3.79;76.92;96765.31;1743405;81;20988;-80
2022/03/16 04:41:57;;;;;;;9.93;8.28;;;;;;;3.82;77.13;96770.19;1742554;81;21051;-81
2022/03/16 04:44:23;;;;;;;8.80;7.67;;;;;;;3.81;77.24;96774.18;1738753;81;21008;-81
2022/03/16 04:46:48;;;;;;;7.90;7.10;;;;;;;3.80;77.05;96778.98;1737403;81;21008;-81
2022/03/16 04:49:14;;;;;;;9.60;8.60;;;;;;;3.76;77.85;96776.34;1749725;81;20941;-80
2022/03/16 04:51:40;;;;;;;9.68;8.68;;;;;;;3.68;77.00;96775.68;1741915;81;21371;-80
2022/03/16 04:54:08;;;;;;;11.48;8.18;;;;;;;3.67;77.14;96775.34;1749690;81;21419;-80
2022/03/16 04:56:36;;;;;;;7.90;7.10;;;;;;;3.70;77.35;96787.92;1744891;81;21062;-80
2022/03/16 04:59:03;;;;;;;8.13;7.35;;;;;;;3.71;77.52;96786.17;1682596;83;20973;-81
2022/03/16 05:01:29;;;;;;;8.40;7.60;;;;;;;3.70;77.52;96795.64;1725334;81;21075;-80
2022/03/16 05:03:55;;;;;;;8.60;7.70;;;;;;;3.68;77.66;96802.66;1747677;80;22237;-81
2022/03/16 05:06:22;;;;;;;7.22;6.53;;;;;;;3.68;77.76;96799.28;1764141;81;21005;-81
2022/03/16 05:08:48;;;;;;;7.97;7.22;;;;;;;3.65;77.97;96799.07;1761202;81;21346;-80
2022/03/16 05:11:14;;;;;;;9.13;8.23;;;;;;;3.63;77.93;96798.39;1678342;84;21000;-81
2022/03/16 05:13:40;;;;;;;9.05;7.70;;;;;;;3.57;78.24;96800.98;1747749;81;20984;-80
2022/03/16 05:16:07;;;;;;;8.38;6.95;;;;;;;3.59;78.38;96802.98;1748401;81;21021;-80
2022/03/16 05:18:35;;;;;;;6.83;6.22;;;;;;;3.63;78.44;96801.44;1748634;81;21437;-80
2022/03/16 05:21:07;;;;;;;7.95;7.25;;;;;;;3.64;78.39;96800.48;1756605;81;20980;-80
2022/03/16 05:23:32;;;;;;;8.25;7.35;;;;;;;3.67;78.29;96806.65;1745908;81;20933;-81
2022/03/16 05:25:58;;;;;;;8.35;7.55;;;;;;;3.70;78.55;96803.82;1762670;80;21094;-81
2022/03/16 05:28:24;;;;;;;8.25;7.42;;;;;;;3.69;78.28;96807.33;1755077;81;21425;-81
2022/03/16 05:30:49;;;;;;;9.75;8.78;;;;;;;3.71;78.43;96803.69;1750839;81;20995;-81
2022/03/16 05:33:15;;;;;;;8.80;7.33;;;;;;;3.72;78.33;96811.73;1747415;81;20971;-81
2022/03/16 05:35:41;;;;;;;7.95;6.80;;;;;;;3.79;78.36;96808.20;1764210;81;21035;-80
2022/03/16 05:38:12;;;;;;;7.17;6.17;;;;;;;3.80;77.87;96816.25;1745630;81;21507;-81
2022/03/16 05:40:36;;;;;;;7.70;6.87;;;;;;;3.81;77.91;96810.16;1774480;81;21075;-81
2022/03/16 05:43:02;;;;;;;8.23;7.00;;;;;;;3.74;77.76;96805.18;1747404;82;21427;-80
2022/03/16 05:45:27;;;;;;;7.72;6.60;;;;;;;3.72;78.28;96810.45;1748054;81;21051;-80
2022/03/16 05:47:53;;;;;;;5.28;4.62;;;;;;;3.71;78.18;96811.39;1747464;82;21129;-80
2022/03/16 05:50:19;;;;;;;6.47;5.87;;;;;;;3.70;78.34;96814.09;1747649;81;21088;-81
2022/03/16 05:52:46;;;;;;;6.67;5.97;;;;;;;3.57;78.23;96806.13;1748356;81;21494;-80
2022/03/16 05:55:13;;;;;;;7.60;6.80;;;;;;;3.53;78.31;96805.23;1749027;81;21378;-80
2022/03/16 05:57:44;;;;;;;7.20;6.50;;;;;;;3.55;78.58;96816.19;1747942;81;21411;-80
2022/03/16 06:00:14;;;;;;;8.15;7.20;;;;;;;3.59;78.81;96815.83;1752371;80;21462;-80
2022/03/16 06:02:38;;;;;;;8.30;7.50;;;;;;;3.66;78.83;96825.58;1753654;81;21056;-80
2022/03/16 06:05:05;;;;;;;13.18;10.70;;;;;;;3.68;78.99;96828.84;1704849;82;21335;-80
2022/03/16 06:07:31;;;;;;;16.55;12.98;;;;;;;3.69;78.91;96831.75;1729491;81;20921;-80
2022/03/16 06:09:57;;;;;;;13.35;11.83;;;;;;;3.70;78.84;96836.76;1756074;80;21446;-80
2022/03/16 06:12:23;;;;;;;13.68;12.35;;;;;;;3.72;78.94;96843.05;1756168;81;20936;-80
2022/03/16 06:14:48;;;;;;;14.55;12.47;;;;;;;3.77;78.69;96847.36;1740015;82;21399;-80
2022/03/16 06:17:15;;;;;;;15.38;13.78;;;;;;;3.80;78.58;96849.67;1751180;81;21004;-81
2022/03/16 06:19:41;;;;;;;16.45;13.50;;;;;;;3.82;78.45;96857.59;1746835;81;21292;-81
2022/03/16 06:22:07;;;;;;;14.70;13.20;;;;;;;3.86;78.68;96867.14;1764098;81;21370;-81
2022/03/16 06:24:33;;;;;;;15.03;13.45;;;;;;;3.86;78.60;96865.85;1752569;81;21012;-80
2022/03/16 06:26:59;;;;;;;15.13;13.50;;;;;;;3.86;78.55;96867.14;1763324;81;21307;-80
2022/03/16 06:29:25;;;;;;;13.98;12.47;;;;;;;3.87;78.63;96877.77;1759507;81;21318;-81
2022/03/16 06:31:51;;;;;;;16.17;13.78;;;;;;;3.88;78.51;96877.63;1758190;81;21079;-80
2022/03/16 06:34:16;;;;;;;13.93;12.50;;;;;;;3.92;78.51;96879.50;1762589;80;20992;-80
2022/03/16 06:36:42;;;;;;;15.13;13.25;;;;;;;3.97;78.55;96888.11;1755194;80;20945;-80
2022/03/16 06:39:08;;;;;;;15.38;13.28;;;;;;;4.00;78.54;96888.66;1762469;81;20992;-80
2022/03/16 06:41:34;;;;;;;15.43;13.00;;;;;;;4.03;78.60;96892.72;1755164;80;21008;-81
2022/03/16 06:43:59;;;;;;;14.05;12.33;;;;;;;4.02;78.71;96891.09;1758003;80;20984;-81
2022/03/16 06:46:27;;;;;;;15.08;13.25;;;;;;;4.03;78.85;96901.73;1758839;81;20975;-81
2022/03/16 06:48:53;;;;;;;15.50;13.08;;;;;;;4.05;78.76;96906.27;1748499;81;21074;-81
2022/03/16 06:51:18;;;;;;;20.45;16.55;;;;;;;4.08;78.54;96899.13;1770004;81;20952;-81
2022/03/16 06:53:46;;;;;;;19.80;17.75;;;;;;;4.13;78.39;96902.12;1753926;81;21044;-81
2022/03/16 06:56:11;;;;;;;19.32;17.42;;;;;;;4.16;78.58;96907.00;1756184;81;21438;-81
2022/03/16 06:58:37;;;;;;;20.23;18.07;;;;;;;4.19;78.54;96913.64;1758048;81;20971;-81
2022/03/16 07:01:03;;;;;;;21.02;17.60;;;;;;;4.20;78.54;96921.23;1750223;81;21068;-81
2022/03/16 07:03:30;;;;;;;25.12;18.65;;;;;;;4.22;78.55;96918.05;1750587;81;21016;-81
2022/03/16 07:05:56;;;;;;;23.45;18.45;;;;;;;4.24;78.74;96923.56;1754835;81;21002;-81
2022/03/16 07:08:21;;;;;;;21.00;16.82;;;;;;;4.23;78.58;96925.33;1748301;81;21010;-81
2022/03/16 07:10:47;;;;;;;19.57;17.25;;;;;;;4.28;78.77;96931.36;1741298;81;21020;-81
2022/03/16 07:13:13;;;;;;;20.02;16.87;;;;;;;4.30;78.58;96933.33;1749208;82;21029;-81
2022/03/16 07:15:41;;;;;;;23.60;18.35;;;;;;;4.31;78.71;96937.53;1751374;80;21068;-81
2022/03/16 07:18:07;;;;;;;22.65;18.65;;;;;;;4.32;78.74;96942.55;1749688;81;20989;-81
2022/03/16 07:20:33;;;;;;;24.65;20.23;;;;;;;4.36;78.80;96949.05;1748973;82;20989;-81
2022/03/16 07:23:11;;;;;;;28.65;22.67;;;;;;;4.37;78.74;96948.58;1750557;80;21005;-81
2022/03/16 07:25:39;;;;;;;31.27;23.35;;;;;;;4.38;78.81;96944.59;1775315;81;21383;-81
2022/03/16 07:28:05;;;;;;;25.97;21.33;;;;;;;4.42;78.88;96945.98;1779828;81;20984;-81
2022/03/16 07:30:32;;;;;;;24.90;20.77;;;;;;;4.45;78.77;96950.05;1779737;80;21338;-81
2022/03/16 07:32:57;;;;;;;24.47;20.23;;;;;;;4.51;79.16;96953.38;1756210;81;21350;-81
2022/03/16 07:35:26;;;;;;;35.83;29.48;;;;;;;4.56;79.13;96959.44;1748557;82;20942;-81
2022/03/16 07:37:51;;;;;;;37.08;31.85;;;;;;;4.53;78.94;96954.88;1751423;81;21041;-81
2022/03/16 07:40:16;;;;;;;28.77;23.25;;;;;;;4.56;78.97;96955.11;1758111;81;21453;-81
2022/03/16 07:42:46;;;;;;;26.42;21.00;;;;;;;4.57;79.09;96960.59;1745288;81;21384;-81
2022/03/16 07:45:15;;;;;;;25.32;20.10;;;;;;;4.52;78.94;96959.67;1760173;81;21383;-81
2022/03/16 07:47:42;;;;;;;25.70;20.97;;;;;;;4.50;79.12;96960.28;1748118;80;21258;-81
2022/03/16 07:50:09;;;;;;;23.05;19.45;;;;;;;4.44;79.20;96956.14;1736367;80;20996;-81
2022/03/16 07:52:35;;;;;;;23.70;19.40;;;;;;;4.46;79.47;96956.34;1767750;80;21401;-81
2022/03/16 07:55:01;;;;;;;29.18;23.35;;;;;;;4.40;79.60;96956.06;1767621;81;20940;-81
2022/03/16 07:57:26;;;;;;;30.25;22.15;;;;;;;4.36;80.20;96967.06;1752357;81;20925;-81
2022/03/16 07:59:52;;;;;;;30.52;23.05;;;;;;;4.36;80.51;96962.39;1740367;81;21051;-81
2022/03/16 08:02:18;;;;;;;29.15;22.87;;;;;;;4.34;80.66;96963.80;1734863;81;20937;-81
2022/03/16 08:04:44;;;;;;;34.65;27.17;;;;;;;4.39;80.92;96968.11;1761585;81;21058;-80
2022/03/16 08:07:10;;;;;;;33.30;25.37;;;;;;;4.46;80.99;96968.40;1765266;81;20938;-81
2022/03/16 08:09:36;;;;;;;39.73;29.70;;;;;;;4.58;80.82;96970.42;1762169;81;21032;-81
2022/03/16 08:12:03;;;;;;;36.68;28.00;;;;;;;4.65;80.95;96974.91;1757032;81;20949;-81
2022/03/16 08:14:28;;;;;;;37.55;27.80;;;;;;;4.71;80.80;96970.51;1749240;81;21308;-80
2022/03/16 08:16:54;;;;;;;39.78;28.62;;;;;;;4.75;80.84;96976.23;1749173;81;20948;-81
2022/03/16 08:19:21;;;;;;;40.95;28.27;;;;;;;4.75;80.72;96974.47;1747447;81;20969;-81
2022/03/16 08:21:48;;;;;;;36.05;26.27;;;;;;;4.79;80.44;96977.13;1749159;81;20901;-81
2022/03/16 08:24:14;;;;;;;31.40;24.02;;;;;;;4.89;80.34;96980.20;1763179;81;21011;-81
2022/03/16 08:26:40;;;;;;;30.72;24.02;;;;;;;4.91;80.15;96979.12;1755700;80;20949;-81
2022/03/16 08:29:07;;;;;;;38.25;27.93;;;;;;;4.93;80.35;96978.52;1749504;81;20979;-81
2022/03/16 08:31:34;;;;;;;34.70;27.52;;;;;;;4.91;80.38;96986.84;1748110;82;21004;-81
2022/03/16 08:34:01;;;;;;;35.52;27.80;;;;;;;4.92;80.41;96983.33;1765540;81;20992;-81
2022/03/16 08:36:27;;;;;;;41.30;31.68;;;;;;;4.95;80.45;96983.06;1754229;81;20968;-81
2022/03/16 08:38:52;;;;;;;55.12;42.25;;;;;;;4.98;80.63;96986.66;1748962;81;21082;-79
2022/03/16 08:41:18;;;;;;;49.05;39.38;;;;;;;4.98;80.62;96992.28;1751171;81;20961;-80
2022/03/16 08:43:44;;;;;;;34.08;28.30;;;;;;;5.02;80.76;96991.06;1776494;81;20988;-79
2022/03/16 08:46:10;;;;;;;33.08;27.65;;;;;;;5.04;80.88;96993.03;1754981;80;21018;-79
2022/03/16 08:48:37;;;;;;;28.77;23.18;;;;;;;5.02;80.95;96989.30;1772998;81;20940;-79
2022/03/16 08:51:03;;;;;;;31.68;25.92;;;;;;;5.03;81.09;96988.34;1779091;81;21036;-79
2022/03/16 08:53:29;;;;;;;27.07;22.70;;;;;;;5.05;81.28;96998.55;1756530;81;20956;-79
2022/03/16 08:55:55;;;;;;;23.85;19.50;;;;;;;5.09;81.19;96996.05;1748707;81;21335;-79
2022/03/16 08:58:21;;;;;;;17.02;15.23;;;;;;;5.15;81.05;96994.69;1764619;81;21020;-79
2022/03/16 09:00:48;;;;;;;20.27;15.68;;;;;;;5.22;81.13;97002.24;1759856;80;21119;-79
2022/03/16 09:03:15;;;;;;;20.52;17.17;;;;;;;5.23;81.09;97003.39;1765355;81;21094;-79
2022/03/16 09:05:41;;;;;;;17.30;15.50;;;;;;;5.28;81.21;97012.00;1764897;80;20943;-79
2022/03/16 09:08:07;;;;;;;17.42;15.63;;;;;;;5.31;80.62;97012.55;1765628;80;20971;-79
2022/03/16 09:10:32;;;;;;;17.73;15.93;;;;;;;5.31;80.62;97012.55;1747731;81;21070;-79
2022/03/16 09:12:58;;;;;;;17.42;15.45;;;;;;;5.36;81.10;97012.95;1737165;81;20919;-79
2022/03/16 09:15:24;;;;;;;16.48;14.78;;;;;;;5.47;81.62;97014.59;1720937;81;20976;-79
2022/03/16 09:17:49;;;;;;;22.02;17.23;;;;;;;5.59;81.69;97014.01;1747922;81;21312;-79
2022/03/16 09:20:15;;;;;;;18.05;16.15;;;;;;;5.65;81.38;97012.98;1743605;80;20985;-80
2022/03/16 09:22:41;;;;;;;21.73;18.65;;;;;;;5.67;81.27;97016.23;1753141;80;20972;-79
2022/03/16 09:25:07;;;;;;;21.07;15.63;;;;;;;5.73;81.80;97017.47;1776064;80;20956;-79
2022/03/16 09:27:35;;;;;;;18.62;16.67;;;;;;;5.82;81.62;97021.80;1748526;81;21005;-79
2022/03/16 09:30:03;;;;;;;19.32;17.20;;;;;;;5.90;81.17;97023.74;1769635;80;21343;-79
2022/03/16 09:32:30;;;;;;;24.32;19.65;;;;;;;5.99;80.85;97030.64;1751468;81;21426;-79
2022/03/16 09:34:56;;;;;;;28.73;21.95;;;;;;;6.03;80.75;97034.59;1739583;80;20936;-79
2022/03/16 09:37:22;;;;;;;24.72;18.82;;;;;;;6.03;80.82;97035.89;1746728;80;21016;-80
2022/03/16 09:39:47;;;;;;;25.70;18.42;;;;;;;6.03;79.94;97041.52;1746797;81;21062;-80
2022/03/16 09:42:13;;;;;;;21.62;18.65;;;;;;;5.98;79.24;97045.30;1757335;80;20952;-80
2022/03/16 09:44:39;;;;;;;19.07;16.87;;;;;;;6.02;79.28;97052.32;1748558;82;21326;-80
2022/03/16 09:47:09;;;;;;;19.45;16.97;;;;;;;6.06;78.75;97055.44;1720556;82;21059;-80
2022/03/16 09:49:33;;;;;;;19.98;17.25;;;;;;;6.10;78.50;97053.72;1701207;82;21394;-80
2022/03/16 09:51:59;;;;;;;21.37;18.20;;;;;;;6.10;78.52;97055.02;1773468;80;21036;-80
2022/03/16 09:54:25;;;;;;;26.07;21.45;;;;;;;6.06;79.40;97059.30;1734707;81;20993;-80
2022/03/16 09:56:52;;;;;;;25.85;21.00;;;;;;;5.97;79.61;97058.34;1730587;81;21363;-80
2022/03/16 09:59:20;;;;;;;26.17;22.07;;;;;;;5.95;79.77;97063.64;1741711;81;21032;-80
2022/03/16 10:01:45;;;;;;;23.57;19.95;;;;;;;5.97;79.24;97064.31;1756613;80;21391;-80
2022/03/16 10:04:11;;;;;;;22.85;18.62;;;;;;;6.01;78.90;97066.14;1748891;81;21057;-80
2022/03/16 10:06:41;;;;;;;23.42;18.85;;;;;;;6.06;78.86;97067.05;1760574;80;21030;-80
2022/03/16 10:15:13;;;;;;;28.65;23.77;;;;;;;6.11;79.77;97077.76;1766076;81;21020;-81
2022/03/16 10:17:43;;;;;;;30.48;24.77;;;;;;;6.12;79.24;97081.97;1757954;80;21272;-80
2022/03/16 10:20:23;;;;;;;25.00;21.60;;;;;;;6.14;78.68;97082.16;1748983;80;20939;-80
2022/03/16 10:23:09;;;;;;;31.33;25.80;;;;;;;6.21;78.98;97087.61;1750086;80;21012;-80
2022/03/16 10:25:51;;;;;;;30.52;24.85;;;;;;;6.20;79.25;97087.27;1697569;83;21098;-80
2022/03/16 10:28:22;;;;;;;32.50;27.48;;;;;;;6.26;78.95;97088.81;1756119;80;20951;-80
2022/03/16 10:30:55;;;;;;;35.60;30.00;;;;;;;6.27;78.89;97094.31;1761790;80;21003;-80
2022/03/16 10:33:30;;;;;;;38.17;28.57;;;;;;;6.26;78.79;97100.91;1755949;81;20960;-80
2022/03/16 10:36:06;;;;;;;33.83;28.10;;;;;;;6.29;79.32;97097.57;1740774;81;21351;-81
2022/03/16 10:39:03;;;;;;;35.10;28.57;;;;;;;6.37;79.32;97099.95;1748951;81;21347;-80
2022/03/16 10:47:13;;;;;;;39.38;31.52;;;;;;;6.60;80.03;97092.22;1762162;80;21048;-80
2022/03/16 10:49:39;;;;;;;36.03;31.25;;;;;;;6.81;80.07;97098.48;1732506;81;20962;-80
2022/03/16 10:52:14;;;;;;;41.18;34.15;;;;;;;6.91;79.55;97103.16;1750312;80;20973;-80
2022/03/16 10:54:39;;;;;;;39.33;33.05;;;;;;;6.93;79.94;97105.12;1756052;80;20977;-83
2022/03/16 10:57:10;;;;;;;38.63;33.65;;;;;;;7.00;79.12;97099.73;1749266;81;20936;-82
2022/03/16 10:59:37;;;;;;;40.90;35.48;;;;;;;7.07;78.38;97104.66;1749684;80;21015;-83
2022/03/16 11:02:14;;;;;;;40.12;35.43;;;;;;;7.15;78.77;97102.64;1750259;81;20964;-81
2022/03/16 11:04:42;;;;;;;44.20;35.70;;;;;;;7.30;78.61;97100.41;1747764;80;21135;-80
2022/03/16 11:07:08;;;;;;;45.80;36.77;;;;;;;7.33;79.00;97096.27;1729289;81;21043;-79
2022/03/16 11:09:35;;;;;;;43.40;35.30;;;;;;;7.38;78.51;97104.39;1757407;81;20992;-79
2022/03/16 11:14:50;;;;;;;36.55;30.55;;;;;;;7.58;78.28;97103.80;1740653;82;20968;-79
2022/03/16 11:17:17;;;;;;;42.05;34.08;;;;;;;7.60;77.69;97103.17;1727298;82;20953;-79
2022/03/16 11:19:46;;;;;;;41.55;33.50;;;;;;;7.69;77.46;97107.00;1728272;82;21433;-79
2022/03/16 11:22:27;;;;;;;41.28;33.75;;;;;;;7.80;77.59;97112.43;1739084;82;21335;-79
2022/03/16 11:25:10;;;;;;;42.48;34.25;;;;;;;7.86;76.64;97118.81;1663030;84;22708;-83
2022/03/16 11:27:47;;;;;;;35.40;30.02;;;;;;;7.72;75.57;97114.95;1652275;85;21489;-83
2022/03/16 11:30:35;;;;;;;45.40;35.63;;;;;;;7.70;74.20;97115.09;1707816;82;20991;-82
2022/03/16 11:33:04;;;;;;;42.85;32.17;;;;;;;7.82;76.45;97114.42;1730268;82;21280;-83
2022/03/16 11:35:37;;;;;;;43.05;35.17;;;;;;;7.97;73.72;97119.42;1716623;82;21287;-83
2022/03/16 11:38:10;;;;;;;44.20;32.98;;;;;;;7.97;73.53;97117.28;1728862;82;21413;-81
2022/03/16 11:40:38;;;;;;;37.85;31.17;;;;;;;8.02;73.40;97121.56;1723930;82;20963;-81
2022/03/16 11:43:12;;;;;;;36.45;29.52;;;;;;;8.06;73.42;97122.89;1726692;82;20984;-82
2022/03/16 11:45:51;;;;;;;44.15;32.15;;;;;;;8.17;72.16;97132.22;1722133;82;21047;-81
2022/03/16 11:48:36;;;;;;;41.50;32.25;;;;;;;8.32;72.95;97136.72;1740204;82;21009;-80
2022/03/16 11:51:17;;;;;;;40.58;31.87;;;;;;;8.49;71.98;97132.52;1735007;82;20937;-80
2022/03/16 11:56:29;;;;;;;37.67;32.28;;;;;;;8.83;71.84;97133.08;1737267;82;20940;-80
2022/03/16 11:59:02;;;;;;;40.30;30.82;;;;;;;8.91;71.50;97135.71;1738274;82;20952;-80
2022/03/16 12:01:45;;;;;;;40.83;31.20;;;;;;;8.86;68.05;97134.06;1707938;82;20913;-80
2022/03/16 12:04:15;;;;;;;39.77;31.50;;;;;;;8.82;70.14;97141.82;1727618;82;21471;-80
2022/03/16 12:07:01;;;;;;;38.92;31.52;;;;;;;8.91;70.58;97137.81;1731982;81;21031;-80
2022/03/16 12:09:38;;;;;;;39.38;32.63;;;;;;;8.92;69.36;97138.14;1744628;81;20977;-80
2022/03/16 12:15:36;;;;;;;37.17;30.55;;;;;;;9.00;70.23;97138.21;1746561;81;21004;-80
2022/03/16 12:18:11;;;;;;;41.18;32.88;;;;;;;9.12;69.43;97145.73;1721935;81;20986;-79
2022/03/16 12:20:45;;;;;;;38.00;31.60;;;;;;;9.18;69.13;97149.00;1753093;80;20976;-79